EmailTwitter


Surface observations / United Kingdom / EGLL (03772)

Regions: Quebec | Canada | USA | Europe | France | UK | Elsewhere
Station
Display
Info & Location for EGLL (03772) | Help decoding METAR

Weather Conditions observed on 2020/07/13 at 15:20 UTC at LONDON/HEATHROW, UK (EGLL)

Temperature: 25.0 Celsius.

Dewpoint: 9.0 Celsius.

Relative Humidity: 36%

Humidex: 26.

Winds: West at 17 km/h or 9 knots.

Mean Sea level Pressure: 102.10 kilopascals.

Horizontal visibility: 6.21 statute miles or 9.94 kilometers.

Coded METAR:

EGLL 131520Z AUTO 28009KT 250V320 9999 NCD 25/09 Q1021 NOSIG=